Terminal Aerodrome Forecast
Issued by NWS

Home | Current Version | Previous Version | Text Only | Print | Product List | Glossary On
Versions: 1 2 3 4 5 6 7 8 9 10 11 12 13 14 15 16 17 18 19
813
FTUS42 KKEY 190528
TAFMTH
TAF
KMTH 190528Z 1906/2006 04005KT P6SM FEW020 SCT100
     FM191200 06008KT P6SM FEW025=

USA.gov is the U.S. government's official web portal to all federal, state and local government web resources and services.